Time;durP1;ratioP1;P1;durP2;ratioP2;P2;SDS_P1;SDS_P2;PMS_P1;PMS_P2;Temp;Humidity;BMP_temperature;BMP_pressure;BME280_temperature;BME280_humidity;BME280_pressure;Samples;Min_cycle;Max_cycle;Signal;HPM_P1;HPM_P2
2022/12/01 00:01:37;;;;;;;42.93;29.20;;;;;;;;;;5053824;28;20228;-46
2022/12/01 00:04:03;;;;;;;40.93;28.70;;;;;;;;;;5053921;28;20219;-46
2022/12/01 00:06:30;;;;;;;42.87;30.40;;;;;;;;;;5052965;28;20217;-46
2022/12/01 00:11:41;;;;;;;38.33;28.80;;;;;;;;;;5053218;28;20204;-46
2022/12/01 00:14:07;;;;;;;39.83;29.73;;;;;;;;;;5053608;28;20651;-45
2022/12/01 00:16:34;;;;;;;38.80;29.27;;;;;;;;;;5053540;28;20204;-45
2022/12/01 00:19:00;;;;;;;40.27;28.97;;;;;;;;;;5053529;28;20200;-45
2022/12/01 00:21:26;;;;;;;40.03;29.53;;;;;;;;;;5053571;28;20708;-45
2022/12/01 00:23:55;;;;;;;40.53;29.23;;;;;;;;;;5053304;28;20200;-45
2022/12/01 00:26:21;;;;;;;40.53;29.50;;;;;;;;;;5053313;28;20239;-45
2022/12/01 00:28:49;;;;;;;40.30;30.30;;;;;;;;;;5053419;28;20291;-45
2022/12/01 00:31:15;;;;;;;39.83;30.50;;;;;;;;;;5053222;28;20668;-45
2022/12/01 00:33:41;;;;;;;42.50;30.27;;;;;;;;;;5053420;28;20196;-45
2022/12/01 00:36:07;;;;;;;39.10;29.70;;;;;;;;;;5052955;28;20203;-45
2022/12/01 00:38:34;;;;;;;44.03;30.27;;;;;;;;;;5053152;28;20200;-45
2022/12/01 00:41:01;;;;;;;39.63;28.70;;;;;;;;;;5053012;28;20220;-45
2022/12/01 00:43:27;;;;;;;40.93;29.80;;;;;;;;;;5053344;28;20283;-45
2022/12/01 00:45:55;;;;;;;41.53;30.60;;;;;;;;;;5053302;28;20196;-46
2022/12/01 00:48:21;;;;;;;37.07;29.10;;;;;;;;;;5052733;28;20200;-46
2022/12/01 00:50:47;;;;;;;40.80;30.33;;;;;;;;;;5052844;28;20236;-46
2022/12/01 00:53:13;;;;;;;42.20;29.43;;;;;;;;;;5052941;28;20446;-46
2022/12/01 00:55:39;;;;;;;39.50;29.57;;;;;;;;;;5051066;28;20207;-46
2022/12/01 00:58:06;;;;;;;39.37;28.87;;;;;;;;;;5051211;28;20204;-46
2022/12/01 01:00:33;;;;;;;42.20;31.00;;;;;;;;;;5052760;28;20220;-46
2022/12/01 01:02:59;;;;;;;42.03;29.27;;;;;;;;;;5052583;28;20680;-46
2022/12/01 01:05:25;;;;;;;36.57;27.93;;;;;;;;;;5052784;28;20273;-46
2022/12/01 01:07:51;;;;;;;40.33;30.83;;;;;;;;;;5052628;28;20609;-46
2022/12/01 01:10:17;;;;;;;40.20;29.73;;;;;;;;;;5052491;28;20658;-46
2022/12/01 01:12:43;;;;;;;37.67;30.17;;;;;;;;;;5052635;28;20639;-46
2022/12/01 01:15:11;;;;;;;43.63;31.50;;;;;;;;;;5052346;28;20295;-46
2022/12/01 01:17:37;;;;;;;44.23;32.43;;;;;;;;;;5052406;28;20291;-46
2022/12/01 01:20:03;;;;;;;43.93;32.10;;;;;;;;;;5052284;28;20254;-46
2022/12/01 01:22:29;;;;;;;40.63;29.77;;;;;;;;;;5052472;28;20283;-46
2022/12/01 01:24:55;;;;;;;41.93;30.33;;;;;;;;;;5052227;28;20216;-46
2022/12/01 01:27:21;;;;;;;44.97;30.43;;;;;;;;;;5052169;28;20562;-46
2022/12/01 01:29:47;;;;;;;43.57;31.33;;;;;;;;;;5052100;28;20757;-46
2022/12/01 01:32:14;;;;;;;45.27;31.67;;;;;;;;;;5052086;28;20443;-46
2022/12/01 01:34:40;;;;;;;44.83;32.57;;;;;;;;;;5052227;28;20240;-46
2022/12/01 01:37:06;;;;;;;45.10;31.30;;;;;;;;;;5052001;28;20283;-46
2022/12/01 01:39:32;;;;;;;45.60;30.70;;;;;;;;;;5052090;28;20196;-46
2022/12/01 01:41:58;;;;;;;43.70;30.83;;;;;;;;;;5051995;28;20773;-46
2022/12/01 01:44:47;;;;;;;42.70;31.43;;;;;;;;;;5051896;28;20196;-46
2022/12/01 01:47:14;;;;;;;44.93;32.07;;;;;;;;;;5051915;28;20253;-47
2022/12/01 01:49:40;;;;;;;41.80;31.43;;;;;;;;;;5051720;28;20282;-46
2022/12/01 01:52:06;;;;;;;41.57;30.83;;;;;;;;;;5051745;28;20223;-46
2022/12/01 01:54:34;;;;;;;43.20;32.33;;;;;;;;;;5051879;28;20200;-46
2022/12/01 01:57:01;;;;;;;45.03;32.27;;;;;;;;;;5051719;28;20227;-46
2022/12/01 01:59:29;;;;;;;47.20;33.23;;;;;;;;;;5051853;28;20204;-46
2022/12/01 02:01:57;;;;;;;47.07;32.80;;;;;;;;;;5051644;28;20814;-46
2022/12/01 02:04:24;;;;;;;43.93;32.30;;;;;;;;;;5051772;28;20271;-46
2022/12/01 02:06:50;;;;;;;44.00;31.43;;;;;;;;;;5051654;28;20290;-46
2022/12/01 02:09:16;;;;;;;45.57;32.30;;;;;;;;;;5051501;28;20319;-46
2022/12/01 02:11:59;;;;;;;42.23;30.60;;;;;;;;;;5051647;28;20242;-46
2022/12/01 02:14:48;;;;;;;47.27;33.67;;;;;;;;;;5051641;28;20207;-46
2022/12/01 02:17:21;;;;;;;41.73;32.17;;;;;;;;;;5036217;28;20240;-46
2022/12/01 02:20:01;;;;;;;42.57;31.70;;;;;;;;;;5051542;28;20438;-46
2022/12/01 02:22:30;;;;;;;46.70;31.70;;;;;;;;;;5051680;28;20204;-46
2022/12/01 02:25:19;;;;;;;38.57;29.40;;;;;;;;;;5051529;28;20208;-46
2022/12/01 02:27:57;;;;;;;48.03;32.33;;;;;;;;;;5036279;28;20224;-46
2022/12/01 02:30:31;;;;;;;44.07;31.33;;;;;;;;;;5053960;28;20682;-46
2022/12/01 02:33:03;;;;;;;45.00;32.70;;;;;;;;;;5055646;28;20252;-46
2022/12/01 02:35:34;;;;;;;43.43;31.77;;;;;;;;;;5055869;28;20215;-46
2022/12/01 02:38:06;;;;;;;45.97;32.50;;;;;;;;;;5055517;28;20204;-46
2022/12/01 02:40:36;;;;;;;48.53;34.00;;;;;;;;;;5055475;28;20238;-46
2022/12/01 02:43:05;;;;;;;47.57;34.30;;;;;;;;;;5055523;28;20567;-46
2022/12/01 02:45:36;;;;;;;42.83;32.17;;;;;;;;;;5055431;28;20211;-47
2022/12/01 02:48:04;;;;;;;45.87;33.13;;;;;;;;;;5055249;28;20247;-46
2022/12/01 02:50:32;;;;;;;42.27;31.20;;;;;;;;;;5055112;28;20289;-46
2022/12/01 02:52:59;;;;;;;47.10;31.23;;;;;;;;;;5055220;28;20213;-46
2022/12/01 02:55:25;;;;;;;44.93;31.97;;;;;;;;;;5055103;28;20650;-47
2022/12/01 02:57:51;;;;;;;46.23;32.53;;;;;;;;;;5055153;28;20204;-46
2022/12/01 03:00:17;;;;;;;47.17;34.23;;;;;;;;;;5054789;28;20265;-45
2022/12/01 03:02:50;;;;;;;43.97;32.23;;;;;;;;;;5055003;28;20583;-46
2022/12/01 03:05:20;;;;;;;48.10;34.67;;;;;;;;;;5054931;28;20234;-46
2022/12/01 03:07:51;;;;;;;46.23;31.63;;;;;;;;;;5054933;28;20519;-46
2022/12/01 03:10:20;;;;;;;47.53;33.73;;;;;;;;;;5054764;28;20203;-46
2022/12/01 03:12:50;;;;;;;48.13;32.97;;;;;;;;;;5054900;28;20492;-46
2022/12/01 03:15:23;;;;;;;44.73;33.03;;;;;;;;;;5054753;28;20662;-46
2022/12/01 03:17:54;;;;;;;49.73;34.37;;;;;;;;;;5054777;28;20662;-47
2022/12/01 03:20:23;;;;;;;45.90;32.93;;;;;;;;;;5054764;28;20228;-46
2022/12/01 03:22:52;;;;;;;44.33;33.43;;;;;;;;;;5054659;28;20235;-46
2022/12/01 03:25:19;;;;;;;47.67;34.63;;;;;;;;;;5054581;28;20612;-46
2022/12/01 03:27:46;;;;;;;47.97;33.87;;;;;;;;;;5054526;28;20219;-46
2022/12/01 03:30:12;;;;;;;46.70;34.87;;;;;;;;;;5054272;28;20283;-46
2022/12/01 03:32:42;;;;;;;49.43;33.63;;;;;;;;;;5054520;28;20208;-47
2022/12/01 03:38:17;;;;;;;45.83;33.37;;;;;;;;;;5054129;28;20397;-46
2022/12/01 03:40:43;;;;;;;53.67;35.87;;;;;;;;;;5053139;28;20255;-46
2022/12/01 03:43:13;;;;;;;49.33;33.77;;;;;;;;;;5054207;28;20208;-46
2022/12/01 03:45:42;;;;;;;51.40;33.87;;;;;;;;;;5054071;28;20196;-47
2022/12/01 03:48:09;;;;;;;49.97;34.37;;;;;;;;;;5054367;28;20619;-45
2022/12/01 03:50:36;;;;;;;51.63;35.73;;;;;;;;;;5054010;28;20252;-46
2022/12/01 03:53:07;;;;;;;49.70;34.33;;;;;;;;;;5054211;28;20196;-46
2022/12/01 03:55:36;;;;;;;50.90;34.73;;;;;;;;;;5054155;28;20287;-46
2022/12/01 03:58:05;;;;;;;55.10;37.50;;;;;;;;;;5053867;28;20211;-46
2022/12/01 04:00:31;;;;;;;55.27;34.93;;;;;;;;;;5053856;28;20679;-46
2022/12/01 04:02:58;;;;;;;54.70;35.73;;;;;;;;;;5053790;28;20227;-46
2022/12/01 04:05:24;;;;;;;53.00;35.27;;;;;;;;;;5053921;28;20196;-46
2022/12/01 04:07:50;;;;;;;52.23;35.93;;;;;;;;;;5053657;28;20254;-46
2022/12/01 04:10:16;;;;;;;54.07;36.37;;;;;;;;;;5053802;28;20196;-46
2022/12/01 04:12:44;;;;;;;53.73;36.73;;;;;;;;;;5053608;28;20655;-46
2022/12/01 04:15:11;;;;;;;50.47;34.97;;;;;;;;;;5053582;28;20205;-46
2022/12/01 04:17:37;;;;;;;48.87;33.63;;;;;;;;;;5053609;28;20558;-46
2022/12/01 04:20:05;;;;;;;48.90;34.93;;;;;;;;;;5053635;28;20228;-46
2022/12/01 04:22:31;;;;;;;54.23;35.87;;;;;;;;;;5053586;28;20196;-46
2022/12/01 04:24:57;;;;;;;51.23;35.10;;;;;;;;;;5053409;28;20204;-46
2022/12/01 04:27:23;;;;;;;51.63;35.00;;;;;;;;;;5053476;28;20246;-46
2022/12/01 04:29:51;;;;;;;48.40;34.90;;;;;;;;;;5053360;28;20196;-46
2022/12/01 04:32:17;;;;;;;57.50;36.67;;;;;;;;;;5053453;28;20295;-46
2022/12/01 04:34:43;;;;;;;58.27;37.40;;;;;;;;;;5053342;28;20236;-46
2022/12/01 04:37:09;;;;;;;58.07;37.47;;;;;;;;;;5053287;28;20250;-46
2022/12/01 04:39:35;;;;;;;53.07;35.03;;;;;;;;;;5053105;28;20561;-46
2022/12/01 04:42:02;;;;;;;52.43;36.27;;;;;;;;;;5052955;28;20787;-46
2022/12/01 04:44:28;;;;;;;53.97;36.50;;;;;;;;;;5053157;28;20200;-45
2022/12/01 04:46:55;;;;;;;55.07;36.53;;;;;;;;;;5052988;28;20193;-46
2022/12/01 04:49:22;;;;;;;55.70;37.17;;;;;;;;;;5053231;28;20204;-46
2022/12/01 04:51:48;;;;;;;57.10;37.20;;;;;;;;;;5052601;28;20449;-46
2022/12/01 04:54:14;;;;;;;53.53;36.37;;;;;;;;;;5052899;28;20235;-46
2022/12/01 04:56:40;;;;;;;55.97;36.10;;;;;;;;;;5052935;28;20192;-46
2022/12/01 04:59:06;;;;;;;55.17;36.20;;;;;;;;;;5052753;28;20230;-46
2022/12/01 05:01:32;;;;;;;54.80;36.60;;;;;;;;;;5052795;28;20247;-46
2022/12/01 05:04:00;;;;;;;55.47;36.40;;;;;;;;;;5052692;28;20653;-46
2022/12/01 05:06:27;;;;;;;52.67;34.57;;;;;;;;;;5052664;28;20200;-46
2022/12/01 05:08:54;;;;;;;57.37;37.13;;;;;;;;;;5052530;28;20303;-46
2022/12/01 05:11:20;;;;;;;54.20;34.93;;;;;;;;;;5052563;28;20639;-46
2022/12/01 05:13:47;;;;;;;52.30;34.97;;;;;;;;;;5052454;28;20753;-46
2022/12/01 05:16:14;;;;;;;55.27;36.47;;;;;;;;;;5052639;28;20431;-46
2022/12/01 05:18:40;;;;;;;57.70;35.37;;;;;;;;;;5052475;28;20287;-46
2022/12/01 05:21:09;;;;;;;57.50;37.20;;;;;;;;;;5052250;28;20350;-46
2022/12/01 05:23:36;;;;;;;59.17;39.10;;;;;;;;;;5052459;28;20207;-46
2022/12/01 05:26:03;;;;;;;58.07;37.57;;;;;;;;;;5052211;28;20222;-46
2022/12/01 05:28:29;;;;;;;52.83;35.03;;;;;;;;;;5052300;28;20200;-46
2022/12/01 05:30:56;;;;;;;60.20;38.97;;;;;;;;;;5052113;28;20192;-46
2022/12/01 05:33:22;;;;;;;53.90;35.23;;;;;;;;;;5052293;28;20295;-46
2022/12/01 05:35:49;;;;;;;61.63;37.80;;;;;;;;;;5052039;28;20575;-46
2022/12/01 05:38:16;;;;;;;59.47;37.67;;;;;;;;;;5052159;28;20251;-46
2022/12/01 05:40:42;;;;;;;57.83;38.20;;;;;;;;;;5052134;28;20223;-46
2022/12/01 05:43:08;;;;;;;57.60;38.23;;;;;;;;;;5052015;28;20200;-45
2022/12/01 05:45:35;;;;;;;52.10;35.50;;;;;;;;;;5052005;28;20215;-46
2022/12/01 05:48:01;;;;;;;58.30;38.07;;;;;;;;;;5051861;28;20628;-46
2022/12/01 05:50:28;;;;;;;58.60;38.37;;;;;;;;;;5051699;28;20232;-46
2022/12/01 05:52:55;;;;;;;57.47;37.13;;;;;;;;;;5051933;28;20192;-46
2022/12/01 05:55:22;;;;;;;60.03;38.07;;;;;;;;;;5052330;28;20197;-46
2022/12/01 05:57:48;;;;;;;55.07;37.17;;;;;;;;;;5051783;28;20261;-47
2022/12/01 06:00:14;;;;;;;63.73;39.10;;;;;;;;;;5051594;28;20232;-47
2022/12/01 06:02:41;;;;;;;62.70;39.77;;;;;;;;;;5051921;28;20262;-46
2022/12/01 06:05:08;;;;;;;65.63;41.90;;;;;;;;;;5051008;28;20215;-46
2022/12/01 06:07:34;;;;;;;63.77;43.53;;;;;;;;;;5051903;28;20201;-47
2022/12/01 06:10:00;;;;;;;61.37;40.03;;;;;;;;;;5051662;28;20232;-47
2022/12/01 06:12:28;;;;;;;60.43;38.57;;;;;;;;;;5051854;28;20212;-46
2022/12/01 06:14:54;;;;;;;55.40;37.33;;;;;;;;;;5051111;28;20192;-47
2022/12/01 06:17:20;;;;;;;57.43;36.93;;;;;;;;;;5051235;28;20200;-47
2022/12/01 06:19:46;;;;;;;61.73;39.70;;;;;;;;;;5051384;28;20718;-46
2022/12/01 06:22:13;;;;;;;62.73;39.10;;;;;;;;;;5051787;28;20285;-47
2022/12/01 06:24:39;;;;;;;60.00;39.07;;;;;;;;;;5051255;28;20230;-47
2022/12/01 06:27:05;;;;;;;57.70;37.77;;;;;;;;;;5051343;28;20211;-47
2022/12/01 06:29:32;;;;;;;63.67;40.07;;;;;;;;;;5051289;28;20192;-47
2022/12/01 06:31:58;;;;;;;60.60;38.97;;;;;;;;;;5051181;28;20647;-46
2022/12/01 06:34:24;;;;;;;55.17;36.63;;;;;;;;;;5051507;28;20526;-46
2022/12/01 06:36:50;;;;;;;60.90;37.13;;;;;;;;;;5051341;28;20227;-46
2022/12/01 06:39:16;;;;;;;61.17;37.90;;;;;;;;;;5051265;28;20200;-46
2022/12/01 06:41:42;;;;;;;63.40;38.80;;;;;;;;;;5051247;28;20220;-46
2022/12/01 06:44:09;;;;;;;64.23;38.23;;;;;;;;;;5051140;28;20440;-45
2022/12/01 06:46:36;;;;;;;61.90;38.10;;;;;;;;;;5051403;28;20184;-46
2022/12/01 06:49:03;;;;;;;67.90;40.03;;;;;;;;;;5051077;28;20206;-46
2022/12/01 06:51:30;;;;;;;60.37;37.90;;;;;;;;;;5051174;28;20499;-46
2022/12/01 06:53:56;;;;;;;63.53;39.97;;;;;;;;;;5051090;28;20442;-46
2022/12/01 06:56:22;;;;;;;61.37;37.97;;;;;;;;;;5051242;28;20431;-46
2022/12/01 06:58:48;;;;;;;61.13;38.83;;;;;;;;;;5051090;28;20201;-46
2022/12/01 07:01:15;;;;;;;63.00;37.67;;;;;;;;;;5050960;28;20721;-46
2022/12/01 07:03:46;;;;;;;61.33;37.83;;;;;;;;;;5051074;28;20459;-46
2022/12/01 07:06:12;;;;;;;61.03;37.73;;;;;;;;;;5051032;28;20216;-46
2022/12/01 07:08:38;;;;;;;65.90;39.43;;;;;;;;;;5051272;28;20455;-46
2022/12/01 07:11:06;;;;;;;62.63;37.63;;;;;;;;;;5051066;28;20262;-46
2022/12/01 07:13:32;;;;;;;68.03;39.80;;;;;;;;;;5051009;28;20427;-46
2022/12/01 07:15:58;;;;;;;61.93;37.63;;;;;;;;;;5052656;28;20438;-45
2022/12/01 07:18:24;;;;;;;58.13;38.03;;;;;;;;;;5054690;28;20639;-45
2022/12/01 07:20:51;;;;;;;59.93;37.00;;;;;;;;;;5054591;28;20216;-45
2022/12/01 07:23:17;;;;;;;55.00;34.50;;;;;;;;;;5054717;28;20514;-46
2022/12/01 07:25:44;;;;;;;67.30;39.80;;;;;;;;;;5054874;28;20797;-46
2022/12/01 07:28:10;;;;;;;67.57;38.53;;;;;;;;;;5054294;28;20445;-46
2022/12/01 07:30:36;;;;;;;64.40;37.20;;;;;;;;;;5054592;28;20431;-45
2022/12/01 07:33:02;;;;;;;62.77;37.87;;;;;;;;;;5054539;28;20423;-44
2022/12/01 07:35:28;;;;;;;84.27;42.67;;;;;;;;;;5054665;28;20447;-44
2022/12/01 07:37:56;;;;;;;85.73;42.90;;;;;;;;;;5054427;28;20234;-45
2022/12/01 07:40:22;;;;;;;89.13;44.43;;;;;;;;;;5054463;28;20652;-44
2022/12/01 07:42:48;;;;;;;83.77;43.73;;;;;;;;;;5054349;28;20434;-44
2022/12/01 07:45:14;;;;;;;79.47;43.20;;;;;;;;;;5054159;28;20978;-44
2022/12/01 07:47:40;;;;;;;82.97;42.43;;;;;;;;;;5054232;28;20438;-45
2022/12/01 07:50:07;;;;;;;92.83;45.27;;;;;;;;;;5053867;28;20483;-46
2022/12/01 07:52:33;;;;;;;109.73;47.57;;;;;;;;;;5054335;28;20438;-44
2022/12/01 07:55:00;;;;;;;99.67;45.57;;;;;;;;;;5054075;28;20435;-45
2022/12/01 07:57:26;;;;;;;96.77;48.10;;;;;;;;;;5054178;28;20485;-45
2022/12/01 07:59:52;;;;;;;95.93;46.80;;;;;;;;;;5053846;28;20450;-45
2022/12/01 08:02:18;;;;;;;95.40;45.23;;;;;;;;;;5053852;28;20267;-45
2022/12/01 08:04:44;;;;;;;99.90;45.83;;;;;;;;;;5054026;28;20293;-45
2022/12/01 08:07:10;;;;;;;107.83;47.93;;;;;;;;;;5053971;28;20214;-45
2022/12/01 08:09:36;;;;;;;100.10;47.30;;;;;;;;;;5053860;28;20231;-45
2022/12/01 08:12:04;;;;;;;109.10;49.00;;;;;;;;;;5053666;28;20474;-45
2022/12/01 08:14:30;;;;;;;103.80;46.90;;;;;;;;;;5053752;28;20458;-46
2022/12/01 08:16:56;;;;;;;87.33;44.40;;;;;;;;;;5053709;28;20430;-45
2022/12/01 08:19:24;;;;;;;99.70;45.87;;;;;;;;;;5053788;28;20200;-46
2022/12/01 08:21:50;;;;;;;102.43;47.53;;;;;;;;;;5053468;28;20781;-45
2022/12/01 08:24:16;;;;;;;96.73;44.33;;;;;;;;;;5053429;28;20538;-45
2022/12/01 08:26:42;;;;;;;92.67;44.63;;;;;;;;;;5053204;28;20474;-49
2022/12/01 08:29:09;;;;;;;88.27;45.70;;;;;;;;;;5053174;28;20801;-46
2022/12/01 08:31:36;;;;;;;85.37;42.20;;;;;;;;;;5053626;28;20575;-47
2022/12/01 08:34:04;;;;;;;89.83;42.63;;;;;;;;;;5053319;28;20435;-46
2022/12/01 08:36:30;;;;;;;95.60;41.83;;;;;;;;;;5053362;28;20439;-46
2022/12/01 08:38:56;;;;;;;89.93;41.33;;;;;;;;;;5053161;28;20493;-46
2022/12/01 08:41:23;;;;;;;89.77;43.10;;;;;;;;;;5053009;28;20228;-46
2022/12/01 08:43:49;;;;;;;84.30;39.27;;;;;;;;;;5053133;28;20488;-46
2022/12/01 08:46:16;;;;;;;85.27;41.57;;;;;;;;;;5053192;28;20451;-45
2022/12/01 08:48:42;;;;;;;74.20;37.60;;;;;;;;;;5053006;28;20478;-45
2022/12/01 08:51:09;;;;;;;79.40;38.20;;;;;;;;;;5052713;28;20532;-45
2022/12/01 08:53:36;;;;;;;77.10;37.17;;;;;;;;;;5053186;28;20825;-45
2022/12/01 08:56:03;;;;;;;76.57;37.23;;;;;;;;;;5052756;28;20438;-45
2022/12/01 08:58:30;;;;;;;73.40;36.80;;;;;;;;;;5052865;28;20431;-45
2022/12/01 09:01:02;;;;;;;74.50;37.70;;;;;;;;;;5052659;28;20476;-45
2022/12/01 09:03:30;;;;;;;69.80;35.07;;;;;;;;;;5052812;28;20459;-45
2022/12/01 09:06:01;;;;;;;70.23;33.83;;;;;;;;;;5052604;28;20446;-45
2022/12/01 09:08:30;;;;;;;66.33;34.93;;;;;;;;;;5052628;28;20816;-45
2022/12/01 09:10:56;;;;;;;70.57;34.90;;;;;;;;;;5052719;28;20434;-44
2022/12/01 09:13:22;;;;;;;61.20;32.93;;;;;;;;;;5051265;28;20430;-44
2022/12/01 09:15:53;;;;;;;62.80;32.50;;;;;;;;;;5052473;28;20589;-45
2022/12/01 09:18:19;;;;;;;61.53;31.90;;;;;;;;;;5052576;28;20812;-45
2022/12/01 09:20:47;;;;;;;58.37;29.60;;;;;;;;;;5052392;28;20478;-45
2022/12/01 09:23:13;;;;;;;47.07;28.60;;;;;;;;;;5052253;28;20215;-44
2022/12/01 09:25:39;;;;;;;48.63;29.30;;;;;;;;;;5052311;28;20533;-45
2022/12/01 09:28:05;;;;;;;48.80;26.87;;;;;;;;;;5052173;28;20206;-44
2022/12/01 09:30:31;;;;;;;46.63;27.60;;;;;;;;;;5052596;28;20196;-44
2022/12/01 09:32:57;;;;;;;45.97;27.87;;;;;;;;;;5052138;28;20473;-45
2022/12/01 09:35:23;;;;;;;43.40;25.27;;;;;;;;;;5052167;28;20459;-45
2022/12/01 09:37:50;;;;;;;41.33;26.23;;;;;;;;;;5052216;28;20291;-45
2022/12/01 09:40:16;;;;;;;39.50;25.17;;;;;;;;;;5051999;28;20200;-45
2022/12/01 09:42:43;;;;;;;37.67;24.90;;;;;;;;;;5052008;28;20461;-45
2022/12/01 09:45:15;;;;;;;40.40;25.17;;;;;;;;;;5051901;28;20451;-44
2022/12/01 09:47:45;;;;;;;42.17;25.27;;;;;;;;;;5051887;28;20448;-45
2022/12/01 09:50:12;;;;;;;39.27;23.97;;;;;;;;;;5051810;28;20883;-44
2022/12/01 09:52:40;;;;;;;44.73;26.80;;;;;;;;;;5051819;28;20492;-44
2022/12/01 09:55:11;;;;;;;44.23;26.00;;;;;;;;;;5051800;28;20488;-44
2022/12/01 09:57:39;;;;;;;41.53;27.20;;;;;;;;;;5052065;28;20438;-45
2022/12/01 10:00:07;;;;;;;46.13;27.60;;;;;;;;;;5051712;28;20522;-46
2022/12/01 10:02:35;;;;;;;43.37;25.30;;;;;;;;;;5051777;28;20525;-46
2022/12/01 10:05:04;;;;;;;47.77;28.40;;;;;;;;;;5051657;28;20449;-46
2022/12/01 10:07:31;;;;;;;47.03;25.93;;;;;;;;;;5051876;28;20435;-45
2022/12/01 10:09:58;;;;;;;44.07;25.17;;;;;;;;;;5051490;28;20957;-46
2022/12/01 10:12:29;;;;;;;46.37;27.10;;;;;;;;;;5051628;28;20431;-46
2022/12/01 10:14:58;;;;;;;46.70;26.83;;;;;;;;;;5051922;28;20453;-46
2022/12/01 10:17:28;;;;;;;46.27;27.20;;;;;;;;;;5051658;28;20438;-46
2022/12/01 10:19:58;;;;;;;49.70;27.73;;;;;;;;;;5051759;28;20806;-46
2022/12/01 10:22:38;;;;;;;49.53;28.40;;;;;;;;;;5051585;28;20833;-46
2022/12/01 10:25:06;;;;;;;48.43;28.93;;;;;;;;;;5051610;28;20442;-46
2022/12/01 10:27:40;;;;;;;45.20;26.87;;;;;;;;;;5051590;28;20949;-46
2022/12/01 10:30:09;;;;;;;47.57;27.40;;;;;;;;;;5051465;28;20446;-46
2022/12/01 10:32:40;;;;;;;42.83;26.30;;;;;;;;;;5051410;28;20885;-46
2022/12/01 10:35:08;;;;;;;46.43;26.03;;;;;;;;;;5051348;28;20220;-46
2022/12/01 10:37:35;;;;;;;46.67;26.03;;;;;;;;;;5051498;28;20198;-46
2022/12/01 10:40:01;;;;;;;40.07;23.40;;;;;;;;;;5051350;28;20196;-45
2022/12/01 10:42:28;;;;;;;41.93;24.20;;;;;;;;;;5051344;28;20462;-46
2022/12/01 10:44:56;;;;;;;44.07;27.13;;;;;;;;;;5051328;28;20621;-45
2022/12/01 10:47:24;;;;;;;44.80;25.77;;;;;;;;;;5051319;28;20207;-45
2022/12/01 10:49:50;;;;;;;43.00;25.53;;;;;;;;;;5051015;28;20470;-46
2022/12/01 10:52:33;;;;;;;41.07;24.40;;;;;;;;;;5055162;28;20504;-46
2022/12/01 10:55:00;;;;;;;43.77;25.73;;;;;;;;;;5055131;28;20438;-45
2022/12/01 10:57:27;;;;;;;44.90;25.27;;;;;;;;;;5055193;28;20438;-46
2022/12/01 10:59:55;;;;;;;42.77;25.00;;;;;;;;;;5055048;28;20431;-46
2022/12/01 11:02:23;;;;;;;42.27;24.83;;;;;;;;;;5055188;28;20470;-45
2022/12/01 11:04:51;;;;;;;40.70;24.13;;;;;;;;;;5054825;28;20778;-46
2022/12/01 11:07:20;;;;;;;42.73;25.40;;;;;;;;;;5054860;28;20200;-45
2022/12/01 11:09:47;;;;;;;46.33;27.30;;;;;;;;;;5054994;28;20574;-45
2022/12/01 11:12:15;;;;;;;43.70;25.80;;;;;;;;;;5054869;28;20300;-45
2022/12/01 11:14:44;;;;;;;46.13;26.67;;;;;;;;;;5054861;28;20860;-45
2022/12/01 11:17:24;;;;;;;40.00;25.53;;;;;;;;;;5054775;28;20231;-45
2022/12/01 11:19:51;;;;;;;47.87;27.87;;;;;;;;;;5054791;28;20659;-46
2022/12/01 11:22:19;;;;;;;44.80;26.83;;;;;;;;;;5054680;28;21005;-45
2022/12/01 11:24:55;;;;;;;46.17;26.97;;;;;;;;;;5054865;28;20435;-45
2022/12/01 11:27:22;;;;;;;43.67;27.43;;;;;;;;;;5054709;28;20811;-45
2022/12/01 11:29:49;;;;;;;46.87;26.40;;;;;;;;;;5054807;28;20203;-45
2022/12/01 11:32:20;;;;;;;52.47;27.47;;;;;;;;;;5054669;28;20193;-45
2022/12/01 11:34:56;;;;;;;46.67;26.57;;;;;;;;;;5054488;28;20434;-47
2022/12/01 11:37:26;;;;;;;43.93;25.63;;;;;;;;;;5054477;28;20286;-46
2022/12/01 11:39:58;;;;;;;43.50;26.53;;;;;;;;;;5054358;28;20455;-47
2022/12/01 11:42:28;;;;;;;50.27;29.10;;;;;;;;;;5054233;28;20221;-47
2022/12/01 11:44:56;;;;;;;46.20;26.37;;;;;;;;;;5054185;28;20196;-45
2022/12/01 11:47:23;;;;;;;67.10;36.07;;;;;;;;;;5054209;28;20442;-45
2022/12/01 11:49:53;;;;;;;58.60;32.83;;;;;;;;;;5053980;28;20899;-45
2022/12/01 11:52:23;;;;;;;44.20;25.90;;;;;;;;;;5054081;28;20434;-46
2022/12/01 11:55:00;;;;;;;40.40;24.10;;;;;;;;;;5054173;28;20196;-46
2022/12/01 11:57:27;;;;;;;44.50;25.10;;;;;;;;;;5053979;28;20446;-46
2022/12/01 11:59:53;;;;;;;41.07;24.57;;;;;;;;;;5054021;28;20197;-46
2022/12/01 12:02:23;;;;;;;41.37;24.40;;;;;;;;;;5052631;28;20514;-46
2022/12/01 12:04:59;;;;;;;42.97;25.07;;;;;;;;;;5054261;28;20184;-47
2022/12/01 12:07:28;;;;;;;42.63;25.90;;;;;;;;;;5058458;28;20203;-45
2022/12/01 12:10:03;;;;;;;39.20;23.60;;;;;;;;;;5073723;28;20211;-46
2022/12/01 12:12:35;;;;;;;44.23;25.50;;;;;;;;;;5073504;28;20509;-45
2022/12/01 12:15:05;;;;;;;46.53;26.67;;;;;;;;;;5073661;28;20206;-46
2022/12/01 12:17:40;;;;;;;49.07;25.67;;;;;;;;;;5073789;28;20666;-46
2022/12/01 12:20:22;;;;;;;51.47;27.33;;;;;;;;;;5072989;28;20203;-44
2022/12/01 12:22:54;;;;;;;50.23;26.83;;;;;;;;;;5073406;28;20517;-44
2022/12/01 12:25:25;;;;;;;52.80;27.83;;;;;;;;;;5073727;28;20223;-46
2022/12/01 12:27:55;;;;;;;51.07;28.37;;;;;;;;;;5073672;28;20430;-45
2022/12/01 12:30:24;;;;;;;46.13;26.93;;;;;;;;;;5073566;28;20211;-45
2022/12/01 12:33:01;;;;;;;48.00;28.17;;;;;;;;;;5073277;28;20434;-44
2022/12/01 12:35:34;;;;;;;48.13;27.30;;;;;;;;;;5073371;28;20533;-44
2022/12/01 12:38:03;;;;;;;44.47;25.93;;;;;;;;;;5073598;28;20231;-45
2022/12/01 12:40:36;;;;;;;45.03;26.13;;;;;;;;;;5073502;28;20437;-45
2022/12/01 12:43:07;;;;;;;41.40;24.03;;;;;;;;;;5073393;28;20204;-45
2022/12/01 12:45:40;;;;;;;49.10;27.90;;;;;;;;;;5073409;28;20202;-45
2022/12/01 12:48:12;;;;;;;47.07;25.47;;;;;;;;;;5073008;28;20206;-45
2022/12/01 12:50:44;;;;;;;39.00;23.83;;;;;;;;;;5073128;28;20552;-45
2022/12/01 12:53:13;;;;;;;41.33;24.57;;;;;;;;;;5073532;28;20456;-45
2022/12/01 12:55:41;;;;;;;38.43;22.93;;;;;;;;;;5073256;28;20207;-44
2022/12/01 12:58:09;;;;;;;37.53;22.53;;;;;;;;;;5073129;28;20464;-44
2022/12/01 13:00:38;;;;;;;42.17;26.30;;;;;;;;;;5072792;28;20508;-44
2022/12/01 13:03:09;;;;;;;48.07;28.83;;;;;;;;;;5072816;28;20442;-44
2022/12/01 13:05:38;;;;;;;45.63;26.83;;;;;;;;;;5072994;28;20430;-45
2022/12/01 13:08:08;;;;;;;37.67;22.67;;;;;;;;;;5072822;28;20233;-45
2022/12/01 13:10:38;;;;;;;39.43;23.47;;;;;;;;;;5072960;28;20204;-45
2022/12/01 13:13:13;;;;;;;36.53;22.50;;;;;;;;;;5072086;28;20521;-45
2022/12/01 13:15:40;;;;;;;30.77;20.23;;;;;;;;;;5072855;28;20445;-45
2022/12/01 13:18:12;;;;;;;31.37;20.60;;;;;;;;;;5072634;28;20438;-45
2022/12/01 13:20:38;;;;;;;36.07;21.47;;;;;;;;;;5072812;28;20257;-45
2022/12/01 13:23:08;;;;;;;32.07;20.83;;;;;;;;;;5072441;28;20446;-46
2022/12/01 13:25:37;;;;;;;31.70;21.67;;;;;;;;;;5072342;28;20210;-45
2022/12/01 13:28:05;;;;;;;31.23;20.53;;;;;;;;;;5072434;28;20430;-44
2022/12/01 13:30:33;;;;;;;31.57;20.03;;;;;;;;;;5072634;28;20503;-45
2022/12/01 13:33:01;;;;;;;32.10;20.67;;;;;;;;;;5072576;28;20227;-45
2022/12/01 13:35:29;;;;;;;29.70;19.50;;;;;;;;;;5072516;28;20961;-45
2022/12/01 13:37:56;;;;;;;26.83;18.30;;;;;;;;;;5072239;28;20461;-45
2022/12/01 13:40:26;;;;;;;32.13;19.80;;;;;;;;;;5070291;28;20653;-45
2022/12/01 13:42:55;;;;;;;29.53;19.10;;;;;;;;;;5070375;28;21018;-46
2022/12/01 13:45:22;;;;;;;27.73;18.30;;;;;;;;;;5072133;28;20438;-45
2022/12/01 13:47:49;;;;;;;28.03;19.93;;;;;;;;;;5072000;28;21147;-46
2022/12/01 13:50:34;;;;;;;29.50;18.70;;;;;;;;;;5071848;28;20484;-46
2022/12/01 13:53:09;;;;;;;30.03;19.30;;;;;;;;;;5072043;28;20230;-45
2022/12/01 13:55:52;;;;;;;33.97;21.40;;;;;;;;;;5072153;28;20445;-45
2022/12/01 13:58:22;;;;;;;36.07;22.60;;;;;;;;;;5071951;28;20207;-45
2022/12/01 14:00:49;;;;;;;36.80;22.57;;;;;;;;;;5072128;28;20509;-46
2022/12/01 14:03:32;;;;;;;35.60;22.30;;;;;;;;;;5071771;28;20425;-46
2022/12/01 14:06:07;;;;;;;38.53;21.80;;;;;;;;;;5071989;28;20438;-46
2022/12/01 14:08:33;;;;;;;33.60;21.13;;;;;;;;;;5069905;28;20591;-46
2022/12/01 14:11:02;;;;;;;37.13;21.30;;;;;;;;;;5071574;28;20793;-45
2022/12/01 14:13:29;;;;;;;33.13;21.57;;;;;;;;;;5071587;28;20456;-45
2022/12/01 14:15:56;;;;;;;39.73;23.43;;;;;;;;;;5071635;28;20442;-46
2022/12/01 14:18:26;;;;;;;34.20;21.80;;;;;;;;;;5071392;28;20290;-46
2022/12/01 14:20:52;;;;;;;38.40;23.03;;;;;;;;;;5071538;28;20552;-45
2022/12/01 14:23:24;;;;;;;32.70;20.30;;;;;;;;;;5071424;28;20444;-46
2022/12/01 14:26:09;;;;;;;40.20;24.27;;;;;;;;;;5070831;28;20433;-46
2022/12/01 14:28:54;;;;;;;37.53;22.50;;;;;;;;;;5071354;28;20444;-45